Terminal Aerodrome Forecast
Issued by NWS

Home | Current Version | Previous Version | Text Only | Print | Product List | Glossary On
Versions: 1 2 3 4 5 6 7 8 9 10 11 12 13 14 15
000
FTUS43 KAPX 260520
TAFMBL
TAF
KMBL 260520Z 2606/2706 07004KT P6SM SKC
     FM261400 35010KT P6SM SCT060
     FM261800 35012G18KT P6SM SCT060
     FM270400 36007KT P6SM BKN050
      AMD LTD TO CLD VIS AND WIND=

USA.gov is the U.S. government's official web portal to all federal, state and local government web resources and services.